createdAt,value
2018-05-27T00:00:17.313Z,92.5
2018-05-27T00:01:17.312Z,92.4
2018-05-27T00:02:17.577Z,92.3
2018-05-27T00:03:16.833Z,92.4
2018-05-27T00:04:17.121Z,92.2
2018-05-27T00:05:17.391Z,92.1
2018-05-27T00:06:17.681Z,92.0
2018-05-27T00:07:16.957Z,91.9
2018-05-27T00:08:17.241Z,91.8
2018-05-27T00:09:17.527Z,91.7
2018-05-27T00:10:16.799Z,91.6
2018-05-27T00:11:16.844Z,91.5
2018-05-27T00:12:17.122Z,91.5
2018-05-27T00:13:17.410Z,91.4
2018-05-27T00:14:16.701Z,91.6
2018-05-27T00:15:16.995Z,91.7
2018-05-27T00:16:17.277Z,91.8
2018-05-27T00:17:17.581Z,91.9
2018-05-27T00:18:16.859Z,92.0
2018-05-27T00:19:17.141Z,91.9
2018-05-27T00:20:17.429Z,92.0
2018-05-27T00:21:17.487Z,92.2
2018-05-27T00:22:16.761Z,92.4
2018-05-27T00:23:17.062Z,92.5
2018-05-27T00:24:17.367Z,92.4
2018-05-27T00:25:17.657Z,92.3
2018-05-27T00:26:16.929Z,92.6
2018-05-27T00:27:17.200Z,92.6
2018-05-27T00:28:17.475Z,92.2
2018-05-27T00:29:16.757Z,92.2
2018-05-27T00:30:17.045Z,92.2
2018-05-27T00:31:17.072Z,92.3
2018-05-27T00:32:17.339Z,92.3
2018-05-27T00:33:17.614Z,92.4
2018-05-27T00:34:16.885Z,92.5
2018-05-27T00:35:17.176Z,92.5
2018-05-27T00:36:17.435Z,92.6
2018-05-27T00:37:16.730Z,92.6
2018-05-27T00:38:17.029Z,92.5
2018-05-27T00:39:17.341Z,92.5
2018-05-27T00:40:17.634Z,92.7
2018-05-27T00:41:17.697Z,92.7
2018-05-27T00:42:17.202Z,92.7
2018-05-27T00:43:17.489Z,92.4
2018-05-27T00:44:16.762Z,92.2
2018-05-27T00:45:17.052Z,91.9
2018-05-27T00:46:17.329Z,91.9
2018-05-27T00:47:17.624Z,91.9
2018-05-27T00:48:16.912Z,91.8
2018-05-27T00:49:17.177Z,91.8
2018-05-27T00:50:17.461Z,91.7
2018-05-27T00:51:17.516Z,91.8
2018-05-27T00:52:16.784Z,92.1
2018-05-27T00:53:17.083Z,92.2
2018-05-27T00:54:17.372Z,92.3
2018-05-27T00:55:17.662Z,92.3
2018-05-27T00:56:16.942Z,92.3
2018-05-27T00:57:17.220Z,92.5
2018-05-27T00:58:17.510Z,92.6
2018-05-27T00:59:16.800Z,92.7
2018-05-27T01:00:17.098Z,92.9
2018-05-27T01:01:17.144Z,92.9
2018-05-27T01:02:17.422Z,93.2
2018-05-27T01:03:16.703Z,93.2
2018-05-27T01:04:16.992Z,93.2
2018-05-27T01:05:17.270Z,92.9
2018-05-27T01:06:17.548Z,92.8
2018-05-27T01:07:16.825Z,93.0
2018-05-27T01:08:17.112Z,93.0
2018-05-27T01:09:17.393Z,93.0
2018-05-27T01:10:17.659Z,93.2
2018-05-27T01:11:16.716Z,93.3
2018-05-27T01:12:17.001Z,93.5
2018-05-27T01:13:17.278Z,93.2
2018-05-27T01:14:17.570Z,93.2
2018-05-27T01:15:16.849Z,93.2
2018-05-27T01:16:17.136Z,92.8
2018-05-27T01:17:17.420Z,92.8
2018-05-27T01:18:16.705Z,93.0
2018-05-27T01:19:16.990Z,93.0
2018-05-27T01:20:17.294Z,93.1
2018-05-27T01:21:17.314Z,93.2
2018-05-27T01:22:17.594Z,92.8
2018-05-27T01:23:16.881Z,92.8
2018-05-27T01:24:17.175Z,93.0
2018-05-27T01:25:17.466Z,93.0
2018-05-27T01:26:16.751Z,93.1
2018-05-27T01:27:17.032Z,93.0
2018-05-27T01:28:17.337Z,93.0
2018-05-27T01:29:17.636Z,93.0
2018-05-27T01:30:16.939Z,93.0
2018-05-27T01:31:16.985Z,93.1
2018-05-27T01:32:17.279Z,92.8
2018-05-27T01:33:17.836Z,93.0
2018-05-27T01:34:17.134Z,92.9
2018-05-27T01:35:17.426Z,93.0
2018-05-27T01:36:16.729Z,93.1
2018-05-27T01:37:17.037Z,93.2
2018-05-27T01:38:17.327Z,92.8
2018-05-27T01:39:17.612Z,92.9
2018-05-27T01:40:16.876Z,93.1
2018-05-27T01:41:16.915Z,93.2
2018-05-27T01:42:17.210Z,93.2
2018-05-27T01:43:17.486Z,93.3
2018-05-27T01:44:16.759Z,93.4
2018-05-27T01:45:17.046Z,93.4
2018-05-27T01:46:17.335Z,93.3
2018-05-27T01:47:17.607Z,93.3
2018-05-27T01:48:16.879Z,93.1
2018-05-27T01:49:17.160Z,93.2
2018-05-27T01:50:17.456Z,92.8
2018-05-27T01:51:17.511Z,93.0
2018-05-27T01:52:16.788Z,92.9
2018-05-27T01:53:17.069Z,92.7
2018-05-27T01:54:17.356Z,92.8
2018-05-27T01:55:17.692Z,92.8
2018-05-27T01:56:17.000Z,92.8
2018-05-27T01:57:17.267Z,93.0
2018-05-27T01:58:17.552Z,92.5
2018-05-27T01:59:16.807Z,92.7
2018-05-27T02:00:17.094Z,92.8
2018-05-27T02:01:17.148Z,92.9
2018-05-27T02:02:17.438Z,93.1
2018-05-27T02:03:17.604Z,93.1
2018-05-27T02:04:16.883Z,93.5
2018-05-27T02:05:17.163Z,93.5
2018-05-27T02:06:17.437Z,93.5
2018-05-27T02:07:16.729Z,93.6
2018-05-27T02:08:17.023Z,93.6
2018-05-27T02:09:17.616Z,93.7
2018-05-27T02:10:16.897Z,93.8
2018-05-27T02:11:16.950Z,93.8
2018-05-27T02:12:17.230Z,93.8
2018-05-27T02:13:17.524Z,93.9
2018-05-27T02:14:16.804Z,93.9
2018-05-27T02:15:17.111Z,93.8
2018-05-27T02:16:17.397Z,94.0
2018-05-27T02:17:17.629Z,94.0
2018-05-27T02:18:16.915Z,93.9
2018-05-27T02:19:17.186Z,93.4
2018-05-27T02:20:17.485Z,93.2
2018-05-27T02:21:17.533Z,93.6
2018-05-27T02:22:16.820Z,93.8
2018-05-27T02:23:17.112Z,94.0
2018-05-27T02:24:17.401Z,94.0
2018-05-27T02:25:17.678Z,94.0
2018-05-27T02:26:16.962Z,94.1
2018-05-27T02:27:17.248Z,94.2
2018-05-27T02:28:17.538Z,94.0
2018-05-27T02:29:16.822Z,93.9
2018-05-27T02:30:17.108Z,93.8
2018-05-27T02:31:17.157Z,93.8
2018-05-27T02:32:17.451Z,93.9
2018-05-27T02:33:16.742Z,94.0
2018-05-27T02:34:17.028Z,94.1
2018-05-27T02:35:17.310Z,94.1
2018-05-27T02:36:17.600Z,94.2
2018-05-27T02:37:16.876Z,94.2
2018-05-27T02:38:17.165Z,94.2
2018-05-27T02:39:17.634Z,94.3
2018-05-27T02:40:16.924Z,94.3
2018-05-27T02:41:16.975Z,94.4
2018-05-27T02:42:17.262Z,94.4
2018-05-27T02:43:17.544Z,94.3
2018-05-27T02:44:16.829Z,94.3
2018-05-27T02:45:17.132Z,94.2
2018-05-27T02:46:17.432Z,94.3
2018-05-27T02:47:16.736Z,94.5
2018-05-27T02:48:17.061Z,94.5
2018-05-27T02:49:17.558Z,94.5
2018-05-27T02:50:16.855Z,93.8
2018-05-27T02:51:16.885Z,93.5
2018-05-27T02:52:17.150Z,93.7
2018-05-27T02:53:17.438Z,93.5
2018-05-27T02:54:16.717Z,93.7
2018-05-27T02:55:17.012Z,93.7
2018-05-27T02:56:17.291Z,93.7
2018-05-27T02:57:17.587Z,93.4
2018-05-27T02:58:16.867Z,93.3
2018-05-27T02:59:17.160Z,93.5
2018-05-27T03:00:17.473Z,93.6
2018-05-27T03:01:17.545Z,93.8
2018-05-27T03:02:16.847Z,93.8
2018-05-27T03:03:17.125Z,93.9
2018-05-27T03:04:17.415Z,94.0
2018-05-27T03:05:16.702Z,94.0
2018-05-27T03:06:16.998Z,94.0
2018-05-27T03:07:17.288Z,94.2
2018-05-27T03:08:17.571Z,93.8
2018-05-27T03:09:16.837Z,93.8
2018-05-27T03:10:17.100Z,93.7
2018-05-27T03:11:17.147Z,93.7
2018-05-27T03:12:17.409Z,94.0
2018-05-27T03:13:16.706Z,93.8
2018-05-27T03:14:16.982Z,94.0
2018-05-27T03:15:17.489Z,94.0
2018-05-27T03:16:16.776Z,94.0
2018-05-27T03:17:17.081Z,94.0
2018-05-27T03:18:17.364Z,94.0
2018-05-27T03:19:17.673Z,94.1
2018-05-27T03:20:16.955Z,94.2
2018-05-27T03:21:17.339Z,93.8
2018-05-27T03:22:17.637Z,93.5
2018-05-27T03:23:16.898Z,93.5
2018-05-27T03:24:17.177Z,93.7
2018-05-27T03:25:17.482Z,93.8
2018-05-27T03:26:16.757Z,93.8
2018-05-27T03:27:17.030Z,93.8
2018-05-27T03:28:17.335Z,93.8
2018-05-27T03:29:17.628Z,93.8
2018-05-27T03:30:16.919Z,93.8
2018-05-27T03:31:16.958Z,94.0
2018-05-27T03:32:17.237Z,94.2
2018-05-27T03:33:17.523Z,94.3
2018-05-27T03:34:16.803Z,94.3
2018-05-27T03:35:17.104Z,94.5
2018-05-27T03:36:17.382Z,94.2
2018-05-27T03:37:17.666Z,94.1
2018-05-27T03:38:16.935Z,93.8
2018-05-27T03:39:17.211Z,93.8
2018-05-27T03:40:17.490Z,93.5
2018-05-27T03:41:17.523Z,93.5
2018-05-27T03:42:16.798Z,93.6
2018-05-27T03:43:17.080Z,93.7
2018-05-27T03:44:17.365Z,93.5
2018-05-27T03:45:17.655Z,93.6
2018-05-27T03:46:16.936Z,93.5
2018-05-27T03:47:17.241Z,93.4
2018-05-27T03:48:17.525Z,93.5
2018-05-27T03:49:17.694Z,93.6
2018-05-27T03:50:16.997Z,93.7
2018-05-27T03:51:17.035Z,93.6
2018-05-27T03:52:17.311Z,93.4
2018-05-27T03:53:17.594Z,93.3
2018-05-27T03:54:16.872Z,93.2
2018-05-27T03:55:17.162Z,93.2
2018-05-27T03:56:17.481Z,93.0
2018-05-27T03:57:16.770Z,92.8
2018-05-27T03:58:17.047Z,92.8
2018-05-27T03:59:17.329Z,92.7
2018-05-27T04:00:17.607Z,92.5
2018-05-27T04:01:17.676Z,92.3
2018-05-27T04:02:16.974Z,92.5
2018-05-27T04:03:17.254Z,92.3
2018-05-27T04:04:18.094Z,92.2
2018-05-27T04:05:17.376Z,92.1
2018-05-27T04:06:17.658Z,92.0
2018-05-27T04:07:16.945Z,91.8
2018-05-27T04:08:17.222Z,91.7
2018-05-27T04:09:17.502Z,91.5
2018-05-27T04:10:16.794Z,91.6
2018-05-27T04:11:16.843Z,91.5
2018-05-27T04:12:17.137Z,91.5
2018-05-27T04:13:17.426Z,91.5
2018-05-27T04:14:16.699Z,91.4
2018-05-27T04:15:16.973Z,91.5
2018-05-27T04:16:17.248Z,91.5
2018-05-27T04:17:17.537Z,91.6
2018-05-27T04:18:16.820Z,91.6
2018-05-27T04:19:17.089Z,91.4
2018-05-27T04:20:17.366Z,91.5
2018-05-27T04:21:17.422Z,91.4
2018-05-27T04:22:16.694Z,91.4
2018-05-27T04:23:16.985Z,91.5
2018-05-27T04:24:17.267Z,91.8
2018-05-27T04:25:17.602Z,91.9
2018-05-27T04:26:16.890Z,91.8
2018-05-27T04:27:17.178Z,91.7
2018-05-27T04:28:17.481Z,91.5
2018-05-27T04:29:16.766Z,91.4
2018-05-27T04:30:17.084Z,91.4
2018-05-27T04:31:17.097Z,91.0
2018-05-27T04:32:17.378Z,91.0
2018-05-27T04:33:17.665Z,90.8
2018-05-27T04:34:16.945Z,91.0
2018-05-27T04:35:17.211Z,90.5
2018-05-27T04:36:17.485Z,90.4
2018-05-27T04:37:16.771Z,90.0
2018-05-27T04:38:17.066Z,89.8
2018-05-27T04:39:17.353Z,89.7
2018-05-27T04:40:17.639Z,89.6
2018-05-27T04:41:17.689Z,89.5
2018-05-27T04:42:16.975Z,89.5
2018-05-27T04:43:17.253Z,89.3
2018-05-27T04:44:17.524Z,88.9
2018-05-27T04:45:16.832Z,88.7
2018-05-27T04:46:17.102Z,88.7
2018-05-27T04:47:17.381Z,88.3
2018-05-27T04:48:17.661Z,88.2
2018-05-27T04:49:16.927Z,88.2
2018-05-27T04:50:17.221Z,88.3
2018-05-27T04:51:17.262Z,88.0
2018-05-27T04:52:17.547Z,88.0
2018-05-27T04:53:16.826Z,88.0
2018-05-27T04:54:17.123Z,87.8
2018-05-27T04:55:17.391Z,87.7
2018-05-27T04:56:17.686Z,87.2
2018-05-27T04:57:16.966Z,87.1
2018-05-27T04:58:17.242Z,86.8
2018-05-27T04:59:17.826Z,87.0
2018-05-27T05:00:17.115Z,86.7
2018-05-27T05:01:17.184Z,86.7
2018-05-27T05:02:17.485Z,86.5
2018-05-27T05:03:16.749Z,85.7
2018-05-27T05:04:17.032Z,85.2
2018-05-27T05:05:17.323Z,85.0
2018-05-27T05:06:17.601Z,84.7
2018-05-27T05:07:16.877Z,84.5
2018-05-27T05:08:17.152Z,84.3
2018-05-27T05:09:17.433Z,84.5
2018-05-27T05:10:16.709Z,83.9
2018-05-27T05:11:16.762Z,84.0
2018-05-27T05:12:17.045Z,83.9
2018-05-27T05:13:17.316Z,83.8
2018-05-27T05:14:17.599Z,83.5
2018-05-27T05:15:16.885Z,83.5
2018-05-27T05:16:17.182Z,83.4
2018-05-27T05:17:17.459Z,83.5
2018-05-27T05:18:16.732Z,83.1
2018-05-27T05:19:17.000Z,82.8
2018-05-27T05:20:17.303Z,81.6
2018-05-27T05:21:17.331Z,82.0
2018-05-27T05:22:17.714Z,81.8
2018-05-27T05:23:17.045Z,81.4
2018-05-27T05:24:17.408Z,81.3
2018-05-27T05:25:16.675Z,80.5
2018-05-27T05:26:16.953Z,80.2
2018-05-27T05:27:17.250Z,79.8
2018-05-27T05:28:17.566Z,80.0
2018-05-27T05:29:16.856Z,79.5
2018-05-27T05:30:17.482Z,79.7
2018-05-27T05:31:17.193Z,79.9
2018-05-27T05:32:17.481Z,79.8
2018-05-27T05:33:16.758Z,79.3
2018-05-27T05:34:17.044Z,79.7
2018-05-27T05:35:17.337Z,78.8
2018-05-27T05:36:17.659Z,79.0
2018-05-27T05:37:16.947Z,78.1
2018-05-27T05:38:17.231Z,78.0
2018-05-27T05:39:17.499Z,77.4
2018-05-27T05:40:16.784Z,77.0
2018-05-27T05:41:16.828Z,77.1
2018-05-27T05:42:17.131Z,76.6
2018-05-27T05:43:17.404Z,75.4
2018-05-27T05:44:16.690Z,76.4
2018-05-27T05:45:17.000Z,75.5
2018-05-27T05:46:17.284Z,75.7
2018-05-27T05:47:17.586Z,76.0
2018-05-27T05:48:16.871Z,75.3
2018-05-27T05:49:17.196Z,74.6
2018-05-27T05:50:17.492Z,74.7
2018-05-27T05:51:17.545Z,74.0
2018-05-27T05:52:16.826Z,73.9
2018-05-27T05:53:17.109Z,74.0
2018-05-27T05:54:17.387Z,73.3
2018-05-27T05:55:17.994Z,73.5
2018-05-27T05:56:17.258Z,73.2
2018-05-27T05:57:17.516Z,72.4
2018-05-27T05:58:16.785Z,72.1
2018-05-27T05:59:17.055Z,71.8
2018-05-27T06:00:17.612Z,72.8
2018-05-27T06:01:17.474Z,73.3
2018-05-27T06:02:16.789Z,73.5
2018-05-27T06:03:17.096Z,74.0
2018-05-27T06:04:17.395Z,72.9
2018-05-27T06:05:17.691Z,73.5
2018-05-27T06:06:16.983Z,72.9
2018-05-27T06:07:17.275Z,72.5
2018-05-27T06:08:17.576Z,72.5
2018-05-27T06:09:16.873Z,72.2
2018-05-27T06:10:17.180Z,72.1
2018-05-27T06:11:17.216Z,72.2
2018-05-27T06:12:17.516Z,71.5
2018-05-27T06:13:16.807Z,70.8
2018-05-27T06:14:17.105Z,72.3
2018-05-27T06:15:17.388Z,73.3
2018-05-27T06:16:17.673Z,72.7
2018-05-27T06:17:16.945Z,72.6
2018-05-27T06:18:17.238Z,71.7
2018-05-27T06:19:17.533Z,71.2
2018-05-27T06:20:16.840Z,71.3
2018-05-27T06:21:16.861Z,70.8
2018-05-27T06:22:17.149Z,70.8
2018-05-27T06:23:17.432Z,71.0
2018-05-27T06:24:16.715Z,70.7
2018-05-27T06:25:16.999Z,70.7
2018-05-27T06:26:17.276Z,70.8
2018-05-27T06:27:17.559Z,70.4
2018-05-27T06:28:16.836Z,70.5
2018-05-27T06:29:17.120Z,70.9
2018-05-27T06:30:17.453Z,70.5
2018-05-27T06:31:17.472Z,71.1
2018-05-27T06:32:16.741Z,71.1
2018-05-27T06:33:17.023Z,70.9
2018-05-27T06:34:17.312Z,71.2
2018-05-27T06:35:17.708Z,69.7
2018-05-27T06:36:16.993Z,70.0
2018-05-27T06:37:17.267Z,70.0
2018-05-27T06:38:17.544Z,70.9
2018-05-27T06:39:16.824Z,70.0
2018-05-27T06:40:17.103Z,71.1
2018-05-27T06:41:17.169Z,71.0
2018-05-27T06:42:17.456Z,70.2
2018-05-27T06:43:16.735Z,69.5
2018-05-27T06:44:17.018Z,70.0
2018-05-27T06:45:17.303Z,70.3
2018-05-27T06:46:17.616Z,70.1
2018-05-27T06:47:16.907Z,69.5
2018-05-27T06:48:17.182Z,69.2
2018-05-27T06:49:17.465Z,69.1
2018-05-27T06:50:16.750Z,69.5
2018-05-27T06:51:16.875Z,69.0
2018-05-27T06:52:17.222Z,68.7
2018-05-27T06:53:17.515Z,69.3
2018-05-27T06:54:16.793Z,69.4
2018-05-27T06:55:17.057Z,69.0
2018-05-27T06:56:17.839Z,69.3
2018-05-27T06:57:17.148Z,68.3
2018-05-27T06:58:17.462Z,68.9
2018-05-27T06:59:16.759Z,66.7
2018-05-27T07:00:17.062Z,65.5
2018-05-27T07:01:17.091Z,64.5
2018-05-27T07:02:17.388Z,64.3
2018-05-27T07:03:17.782Z,63.8
2018-05-27T07:04:17.065Z,64.1
2018-05-27T07:05:17.367Z,63.5
2018-05-27T07:06:17.982Z,63.4
2018-05-27T07:07:17.290Z,64.0
2018-05-27T07:08:17.554Z,63.2
2018-05-27T07:09:16.813Z,62.8
2018-05-27T07:10:17.098Z,63.8
2018-05-27T07:11:17.145Z,62.7
2018-05-27T07:12:17.414Z,61.9
2018-05-27T07:13:16.698Z,62.0
2018-05-27T07:14:16.978Z,61.8
2018-05-27T07:15:17.282Z,62.6
2018-05-27T07:16:17.593Z,60.7
2018-05-27T07:17:16.899Z,61.0
2018-05-27T07:18:17.198Z,60.5
2018-05-27T07:19:17.468Z,62.5
2018-05-27T07:20:16.762Z,61.1
2018-05-27T07:21:16.792Z,60.7
2018-05-27T07:22:17.074Z,60.4
2018-05-27T07:23:17.351Z,59.8
2018-05-27T07:24:17.633Z,61.3
2018-05-27T07:25:16.926Z,60.6
2018-05-27T07:26:17.209Z,60.5
2018-05-27T07:27:17.481Z,61.5
2018-05-27T07:28:16.779Z,62.5
2018-05-27T07:29:17.087Z,61.8
2018-05-27T07:30:17.382Z,61.1
2018-05-27T07:31:17.423Z,61.7
2018-05-27T07:32:16.776Z,59.7
2018-05-27T07:33:17.108Z,60.2
2018-05-27T07:34:17.373Z,61.3
2018-05-27T07:35:17.668Z,59.3
2018-05-27T07:36:16.941Z,60.0
2018-05-27T07:37:17.216Z,59.5
2018-05-27T07:38:17.483Z,60.7
2018-05-27T07:39:16.756Z,59.9
2018-05-27T07:40:17.053Z,60.2
2018-05-27T07:41:17.102Z,61.1
2018-05-27T07:42:17.662Z,60.8
2018-05-27T07:43:16.947Z,61.0
2018-05-27T07:44:17.217Z,60.1
2018-05-27T07:45:17.504Z,59.4
2018-05-27T07:46:16.799Z,59.5
2018-05-27T07:47:17.073Z,60.8
2018-05-27T07:48:17.350Z,61.2
2018-05-27T07:49:17.629Z,61.1
2018-05-27T07:50:16.912Z,59.1
2018-05-27T07:51:16.941Z,58.9
2018-05-27T07:52:17.231Z,59.6
2018-05-27T07:53:17.507Z,59.8
2018-05-27T07:54:16.787Z,58.9
2018-05-27T07:55:17.072Z,58.3
2018-05-27T07:56:17.368Z,58.8
2018-05-27T07:57:17.659Z,60.6
2018-05-27T07:58:17.067Z,60.4
2018-05-27T07:59:17.448Z,59.4
2018-05-27T08:00:16.725Z,58.6
2018-05-27T08:01:16.837Z,58.9
2018-05-27T08:02:17.140Z,59.4
2018-05-27T08:03:17.436Z,60.1
2018-05-27T08:04:16.733Z,60.4
2018-05-27T08:05:17.033Z,60.7
2018-05-27T08:06:17.332Z,60.4
2018-05-27T08:07:17.611Z,60.9
2018-05-27T08:08:16.879Z,61.4
2018-05-27T08:09:17.168Z,61.6
2018-05-27T08:10:17.457Z,60.7
2018-05-27T08:11:17.518Z,61.3
2018-05-27T08:12:16.799Z,61.8
2018-05-27T08:13:17.082Z,61.4
2018-05-27T08:14:17.365Z,60.2
2018-05-27T08:15:17.649Z,60.2
2018-05-27T08:16:16.992Z,62.1
2018-05-27T08:17:17.278Z,61.8
2018-05-27T08:18:17.557Z,61.6
2018-05-27T08:19:16.832Z,60.9
2018-05-27T08:20:17.129Z,61.4
2018-05-27T08:21:17.155Z,61.3
2018-05-27T08:22:17.440Z,62.3
2018-05-27T08:23:16.731Z,61.7
2018-05-27T08:24:17.033Z,62.1
2018-05-27T08:25:17.323Z,60.8
2018-05-27T08:26:17.652Z,60.4
2018-05-27T08:27:16.932Z,61.5
2018-05-27T08:28:17.216Z,60.5
2018-05-27T08:29:17.494Z,59.4
2018-05-27T08:30:16.789Z,59.2
2018-05-27T08:31:16.811Z,60.0
2018-05-27T08:32:17.123Z,58.3
2018-05-27T08:33:17.399Z,58.0
2018-05-27T08:34:17.686Z,56.8
2018-05-27T08:35:16.955Z,57.6
2018-05-27T08:36:17.235Z,55.2
2018-05-27T08:37:17.514Z,55.4
2018-05-27T08:38:16.792Z,56.1
2018-05-27T08:39:17.073Z,56.5
2018-05-27T08:40:17.350Z,55.1
2018-05-27T08:41:17.426Z,56.5
2018-05-27T08:42:16.707Z,55.0
2018-05-27T08:43:17.016Z,56.0
2018-05-27T08:44:17.273Z,55.0
2018-05-27T08:45:17.568Z,54.4
2018-05-27T08:46:16.850Z,54.0
2018-05-27T08:47:17.127Z,54.0
2018-05-27T08:48:17.411Z,53.0
2018-05-27T08:49:16.697Z,55.2
2018-05-27T08:50:16.971Z,53.6
2018-05-27T08:51:17.000Z,53.8
2018-05-27T08:52:17.290Z,53.2
2018-05-27T08:53:17.615Z,53.1
2018-05-27T08:54:16.901Z,51.2
2018-05-27T08:55:17.186Z,52.5
2018-05-27T08:56:17.492Z,54.4
2018-05-27T08:57:16.843Z,53.5
2018-05-27T08:58:17.149Z,52.9
2018-05-27T08:59:17.429Z,54.6
2018-05-27T09:00:16.717Z,53.0
2018-05-27T09:01:16.926Z,53.8
2018-05-27T09:02:17.282Z,53.0
2018-05-27T09:03:17.589Z,53.8
2018-05-27T09:04:16.855Z,54.3
2018-05-27T09:05:17.140Z,55.2
2018-05-27T09:06:17.421Z,52.9
2018-05-27T09:07:16.706Z,52.8
2018-05-27T09:08:16.981Z,53.6
2018-05-27T09:09:17.291Z,51.8
2018-05-27T09:10:17.586Z,52.3
2018-05-27T09:11:17.607Z,52.8
2018-05-27T09:12:16.891Z,53.4
2018-05-27T09:13:17.175Z,53.4
2018-05-27T09:14:17.452Z,51.7
2018-05-27T09:15:16.860Z,53.5
2018-05-27T09:16:17.175Z,50.8
2018-05-27T09:17:17.458Z,53.0
2018-05-27T09:18:16.748Z,50.6
2018-05-27T09:19:17.029Z,50.8
2018-05-27T09:20:17.332Z,50.9
2018-05-27T09:21:17.349Z,50.1
2018-05-27T09:22:17.643Z,50.6
2018-05-27T09:23:16.941Z,49.4
2018-05-27T09:24:17.248Z,52.0
2018-05-27T09:25:17.531Z,48.4
2018-05-27T09:26:16.823Z,48.0
2018-05-27T09:27:17.122Z,52.1
2018-05-27T09:28:17.409Z,48.3
2018-05-27T09:29:17.681Z,45.7
2018-05-27T09:30:16.980Z,47.7
2018-05-27T09:31:17.007Z,46.4
2018-05-27T09:32:17.298Z,46.6
2018-05-27T09:33:17.569Z,47.5
2018-05-27T09:34:16.867Z,45.2
2018-05-27T09:35:17.154Z,46.4
2018-05-27T09:36:17.440Z,46.8
2018-05-27T09:37:16.730Z,47.9
2018-05-27T09:38:17.006Z,46.1
2018-05-27T09:39:17.382Z,46.8
2018-05-27T09:40:17.676Z,46.2
2018-05-27T09:41:16.723Z,46.2
2018-05-27T09:42:17.020Z,46.5
2018-05-27T09:43:17.299Z,45.6
2018-05-27T09:44:17.583Z,47.0
2018-05-27T09:45:16.956Z,45.6
2018-05-27T09:46:17.243Z,45.5
2018-05-27T09:47:17.511Z,49.0
2018-05-27T09:48:16.778Z,46.9
2018-05-27T09:49:17.052Z,49.2
2018-05-27T09:50:17.341Z,46.4
2018-05-27T09:51:17.409Z,47.0
2018-05-27T09:52:17.690Z,47.4
2018-05-27T09:53:16.957Z,48.0
2018-05-27T09:54:17.260Z,48.4
2018-05-27T09:55:17.546Z,49.0
2018-05-27T09:56:16.836Z,47.0
2018-05-27T09:57:17.123Z,47.6
2018-05-27T09:58:17.397Z,45.9
2018-05-27T09:59:17.679Z,47.2
2018-05-27T10:00:16.968Z,48.3
2018-05-27T10:01:16.990Z,47.4
2018-05-27T10:02:17.271Z,46.9
2018-05-27T10:03:17.571Z,46.0
2018-05-27T10:04:16.847Z,43.2
2018-05-27T10:05:17.128Z,46.8
2018-05-27T10:06:17.414Z,47.6
2018-05-27T10:07:16.698Z,47.8
2018-05-27T10:08:16.967Z,45.9
2018-05-27T10:09:17.238Z,48.7
2018-05-27T10:10:17.531Z,48.4
2018-05-27T10:11:17.578Z,49.0
2018-05-27T10:12:16.844Z,47.4
2018-05-27T10:13:17.109Z,49.0
2018-05-27T10:14:17.390Z,48.4
2018-05-27T10:15:17.663Z,48.8
2018-05-27T10:16:16.946Z,47.2
2018-05-27T10:17:17.226Z,47.5
2018-05-27T10:18:17.509Z,46.2
2018-05-27T10:19:16.773Z,47.6
2018-05-27T10:20:17.062Z,48.4
2018-05-27T10:21:17.102Z,48.5
2018-05-27T10:22:17.383Z,48.0
2018-05-27T10:23:17.657Z,46.8
2018-05-27T10:24:16.929Z,45.7
2018-05-27T10:25:17.234Z,49.0
2018-05-27T10:26:17.740Z,47.6
2018-05-27T10:27:17.058Z,46.5
2018-05-27T10:28:17.343Z,46.2
2018-05-27T10:29:17.626Z,47.1
2018-05-27T10:30:16.921Z,46.7
2018-05-27T10:31:16.958Z,47.0
2018-05-27T10:32:17.247Z,47.7
2018-05-27T10:33:17.535Z,48.2
2018-05-27T10:34:16.814Z,47.5
2018-05-27T10:35:17.092Z,48.5
2018-05-27T10:36:17.392Z,47.9
2018-05-27T10:37:17.667Z,46.5
2018-05-27T10:38:16.953Z,47.7
2018-05-27T10:39:17.361Z,48.1
2018-05-27T10:40:17.656Z,48.3
2018-05-27T10:41:17.710Z,48.0
2018-05-27T10:42:16.982Z,47.9
2018-05-27T10:43:17.274Z,48.6
2018-05-27T10:44:17.573Z,48.6
2018-05-27T10:45:16.862Z,48.2
2018-05-27T10:46:17.154Z,47.5
2018-05-27T10:47:17.433Z,48.7
2018-05-27T10:48:16.716Z,48.3
2018-05-27T10:49:17.042Z,48.4
2018-05-27T10:50:17.346Z,48.4
2018-05-27T10:51:17.376Z,48.8
2018-05-27T10:52:17.664Z,49.6
2018-05-27T10:53:16.948Z,49.5
2018-05-27T10:54:17.243Z,48.5
2018-05-27T10:55:17.523Z,48.9
2018-05-27T10:56:16.806Z,50.0
2018-05-27T10:57:17.085Z,48.5
2018-05-27T10:58:17.371Z,48.2
2018-05-27T10:59:17.650Z,49.6
2018-05-27T11:00:16.936Z,49.8
2018-05-27T11:01:16.976Z,47.5
2018-05-27T11:02:17.266Z,48.2
2018-05-27T11:03:17.547Z,47.8
2018-05-27T11:04:16.825Z,48.3
2018-05-27T11:05:17.106Z,47.9
2018-05-27T11:06:17.393Z,47.7
2018-05-27T11:07:17.671Z,50.2
2018-05-27T11:08:16.950Z,50.8
2018-05-27T11:09:17.228Z,48.6
2018-05-27T11:10:17.523Z,50.0
2018-05-27T11:11:17.572Z,48.5
2018-05-27T11:12:17.032Z,48.8
2018-05-27T11:13:17.358Z,47.2
2018-05-27T11:14:17.619Z,48.1
2018-05-27T11:15:16.895Z,48.0
2018-05-27T11:16:17.183Z,46.9
2018-05-27T11:17:17.475Z,48.0
2018-05-27T11:18:16.760Z,48.7
2018-05-27T11:19:17.036Z,47.0
2018-05-27T11:20:17.321Z,47.2
2018-05-27T11:21:17.383Z,47.8
2018-05-27T11:22:17.667Z,47.7
2018-05-27T11:23:16.944Z,48.9
2018-05-27T11:24:17.234Z,48.0
2018-05-27T11:25:17.534Z,46.4
2018-05-27T11:26:16.823Z,48.0
2018-05-27T11:27:17.117Z,47.0
2018-05-27T11:28:17.390Z,47.3
2018-05-27T11:29:17.673Z,46.7
2018-05-27T11:30:16.969Z,47.2
2018-05-27T11:31:17.047Z,47.8
2018-05-27T11:32:17.335Z,47.7
2018-05-27T11:33:17.609Z,48.4
2018-05-27T11:34:16.890Z,47.4
2018-05-27T11:35:17.155Z,47.5
2018-05-27T11:36:17.755Z,47.8
2018-05-27T11:37:17.045Z,46.6
2018-05-27T11:38:17.324Z,46.6
2018-05-27T11:39:17.604Z,46.8
2018-05-27T11:40:16.893Z,45.9
2018-05-27T11:41:16.928Z,45.8
2018-05-27T11:42:17.224Z,46.8
2018-05-27T11:43:17.518Z,47.5
2018-05-27T11:44:16.818Z,48.6
2018-05-27T11:45:17.111Z,48.5
2018-05-27T11:46:17.395Z,47.5
2018-05-27T11:47:17.685Z,47.5
2018-05-27T11:48:16.957Z,47.5
2018-05-27T11:49:17.243Z,48.0
2018-05-27T11:50:17.527Z,47.2
2018-05-27T11:51:17.580Z,46.3
2018-05-27T11:52:16.860Z,45.8
2018-05-27T11:53:17.129Z,48.1
2018-05-27T11:54:17.578Z,47.6
2018-05-27T11:55:16.918Z,47.5
2018-05-27T11:56:17.208Z,47.6
2018-05-27T11:57:17.509Z,46.2
2018-05-27T11:58:16.774Z,46.5
2018-05-27T11:59:17.053Z,47.3
2018-05-27T12:00:17.349Z,48.5
2018-05-27T12:01:17.398Z,48.1
2018-05-27T12:02:17.684Z,46.8
2018-05-27T12:03:16.960Z,47.3
2018-05-27T12:04:17.242Z,46.9
2018-05-27T12:05:17.530Z,46.1
2018-05-27T12:06:16.803Z,47.5
2018-05-27T12:07:17.098Z,47.0
2018-05-27T12:08:17.368Z,46.8
2018-05-27T12:09:17.878Z,46.8
2018-05-27T12:10:17.188Z,46.5
2018-05-27T12:11:17.223Z,46.8
2018-05-27T12:12:17.510Z,47.3
2018-05-27T12:13:16.801Z,46.2
2018-05-27T12:14:17.091Z,48.5
2018-05-27T12:15:17.360Z,47.9
2018-05-27T12:16:17.682Z,46.5
2018-05-27T12:17:16.976Z,47.4
2018-05-27T12:18:17.259Z,46.2
2018-05-27T12:19:17.539Z,47.9
2018-05-27T12:20:16.822Z,46.4
2018-05-27T12:21:16.845Z,45.9
2018-05-27T12:22:17.123Z,47.5
2018-05-27T12:23:17.376Z,49.0
2018-05-27T12:24:17.676Z,47.5
2018-05-27T12:25:16.937Z,48.0
2018-05-27T12:26:17.198Z,48.0
2018-05-27T12:27:17.476Z,48.2
2018-05-27T12:28:16.749Z,47.5
2018-05-27T12:29:17.049Z,48.0
2018-05-27T12:30:17.352Z,49.0
2018-05-27T12:31:17.391Z,47.5
2018-05-27T12:32:17.972Z,48.0
2018-05-27T12:33:17.257Z,46.6
2018-05-27T12:34:17.587Z,48.1
2018-05-27T12:35:16.865Z,48.0
2018-05-27T12:36:17.154Z,47.4
2018-05-27T12:37:17.432Z,47.0
2018-05-27T12:38:16.698Z,47.8
2018-05-27T12:39:16.959Z,49.0
2018-05-27T12:40:17.255Z,46.3
2018-05-27T12:41:17.290Z,47.6
2018-05-27T12:42:17.560Z,48.8
2018-05-27T12:43:16.865Z,48.0
2018-05-27T12:44:17.145Z,48.4
2018-05-27T12:45:17.439Z,47.5
2018-05-27T12:46:16.719Z,47.3
2018-05-27T12:47:16.992Z,48.0
2018-05-27T12:48:17.298Z,48.8
2018-05-27T12:49:17.573Z,49.0
2018-05-27T12:50:16.863Z,46.9
2018-05-27T12:51:16.915Z,47.5
2018-05-27T12:52:17.208Z,46.9
2018-05-27T12:53:17.513Z,47.5
2018-05-27T12:54:16.791Z,47.6
2018-05-27T12:55:17.082Z,47.1
2018-05-27T12:56:17.364Z,49.0
2018-05-27T12:57:17.644Z,47.6
2018-05-27T12:58:16.930Z,48.3
2018-05-27T12:59:17.215Z,47.4
2018-05-27T13:00:17.507Z,47.9
2018-05-27T13:01:17.541Z,47.8
2018-05-27T13:02:16.825Z,47.6
2018-05-27T13:03:17.106Z,48.5
2018-05-27T13:04:17.377Z,48.2
2018-05-27T13:05:17.658Z,49.0
2018-05-27T13:06:16.936Z,49.0
2018-05-27T13:07:17.226Z,48.7
2018-05-27T13:08:17.521Z,49.1
2018-05-27T13:09:16.808Z,49.4
2018-05-27T13:10:17.090Z,48.7
2018-05-27T13:11:17.145Z,49.2
2018-05-27T13:12:17.440Z,49.7
2018-05-27T13:13:16.726Z,50.0
2018-05-27T13:14:17.021Z,49.1
2018-05-27T13:15:17.325Z,49.0
2018-05-27T13:16:17.817Z,47.5
2018-05-27T13:17:17.176Z,48.5
2018-05-27T13:18:17.453Z,47.1